createdAt,value
2022-11-29T00:00:46.018Z,63.77
2022-11-29T00:01:45.020Z,64.33
2022-11-29T00:02:45.050Z,64.33
2022-11-29T00:03:44.945Z,64.91
2022-11-29T00:04:45.369Z,64.84
2022-11-29T00:05:44.901Z,64.84
2022-11-29T00:06:44.955Z,64.77
2022-11-29T00:07:44.971Z,64.77
2022-11-29T00:08:44.948Z,64.69
2022-11-29T00:09:44.950Z,64.41
2022-11-29T00:10:44.959Z,64.29
2022-11-29T00:11:45.009Z,64.05
2022-11-29T00:12:44.916Z,64.05
2022-11-29T00:13:44.917Z,63.80
2022-11-29T00:14:46.540Z,63.38
2022-11-29T00:15:44.976Z,63.27
2022-11-29T00:16:45.023Z,63.27
2022-11-29T00:19:44.961Z,62.89
2022-11-29T00:20:44.938Z,62.89
2022-11-29T00:21:45.010Z,62.74
2022-11-29T00:22:44.968Z,62.60
2022-11-29T00:23:44.973Z,62.60
2022-11-29T00:24:45.235Z,62.66
2022-11-29T00:25:44.991Z,62.66
2022-11-29T00:26:44.986Z,62.67
2022-11-29T00:27:45.015Z,62.98
2022-11-29T00:28:44.950Z,62.98
2022-11-29T00:29:45.023Z,62.87
2022-11-29T00:30:45.022Z,62.87
2022-11-29T00:32:45.001Z,62.84
2022-11-29T00:33:44.997Z,62.84
2022-11-29T00:34:45.172Z,62.83
2022-11-29T00:35:45.005Z,62.83
2022-11-29T00:36:44.964Z,62.72
2022-11-29T00:37:44.962Z,62.67
2022-11-29T00:38:44.994Z,62.43
2022-11-29T00:39:45.012Z,62.36
2022-11-29T00:40:45.017Z,62.36
2022-11-29T00:41:44.979Z,62.35
2022-11-29T00:42:45.055Z,62.12
2022-11-29T00:43:45.057Z,62.20
2022-11-29T00:44:45.352Z,62.25
2022-11-29T00:45:45.006Z,62.25
2022-11-29T00:47:45.043Z,62.20
2022-11-29T00:48:45.050Z,62.25
2022-11-29T00:49:45.092Z,62.52
2022-11-29T00:51:45.052Z,62.57
2022-11-29T00:52:45.039Z,62.51
2022-11-29T00:53:45.024Z,62.58
2022-11-29T00:54:45.395Z,62.21
2022-11-29T00:55:45.078Z,62.21
2022-11-29T00:56:45.058Z,62.10
2022-11-29T00:57:45.067Z,62.17
2022-11-29T00:58:45.033Z,62.17
2022-11-29T01:01:45.073Z,61.96
2022-11-29T01:02:45.093Z,61.97
2022-11-29T01:03:45.089Z,61.96
2022-11-29T01:05:45.085Z,61.81
2022-11-29T01:21:45.111Z,61.34
2022-11-29T01:23:45.133Z,61.30
2022-11-29T01:24:45.262Z,61.30
2022-11-29T01:25:45.106Z,61.50
2022-11-29T01:36:45.168Z,61.39
2022-11-29T01:37:45.205Z,61.15
2022-11-29T01:38:45.164Z,60.99
2022-11-29T01:40:45.168Z,61.04
2022-11-29T01:43:45.182Z,61.11
2022-11-29T01:44:45.478Z,61.17
2022-11-29T01:45:45.202Z,61.17
2022-11-29T01:48:45.174Z,61.15
2022-11-29T01:49:45.216Z,61.26
2022-11-29T01:51:45.193Z,61.38
2022-11-29T01:53:45.203Z,61.14
2022-11-29T01:54:45.507Z,61.16
2022-11-29T01:55:45.297Z,61.16
2022-11-29T01:57:45.250Z,61.01
2022-11-29T01:59:45.203Z,61.28
2022-11-29T02:00:45.242Z,61.34
2022-11-29T02:01:45.306Z,61.34
2022-11-29T02:02:45.349Z,61.21
2022-11-29T02:04:45.484Z,61.30
2022-11-29T02:05:45.216Z,61.09
2022-11-29T02:06:45.229Z,61.11
2022-11-29T02:07:45.308Z,61.00
2022-11-29T02:08:45.240Z,61.00
2022-11-29T02:09:45.266Z,61.09
2022-11-29T02:11:45.257Z,61.11
2022-11-29T02:13:45.249Z,61.17
2022-11-29T02:15:45.337Z,61.25
2022-11-29T02:16:45.218Z,61.42
2022-11-29T02:17:45.249Z,61.51
2022-11-29T02:18:45.265Z,61.51
2022-11-29T02:19:45.260Z,61.39
2022-11-29T02:20:45.222Z,61.39
2022-11-29T02:21:45.231Z,61.42
2022-11-29T02:22:45.319Z,61.31
2022-11-29T02:23:45.233Z,61.42
2022-11-29T02:26:45.291Z,61.43
2022-11-29T02:27:45.314Z,61.32
2022-11-29T02:28:45.295Z,61.30
2022-11-29T02:30:45.309Z,61.13
2022-11-29T02:31:45.286Z,61.06
2022-11-29T02:32:45.289Z,60.88
2022-11-29T02:33:45.256Z,60.88
2022-11-29T02:34:45.440Z,60.92
2022-11-29T02:35:45.324Z,60.99
2022-11-29T02:36:45.334Z,61.06
2022-11-29T02:38:45.305Z,61.35
2022-11-29T02:39:45.290Z,61.23
2022-11-29T02:40:45.329Z,61.12
2022-11-29T02:41:45.305Z,61.12
2022-11-29T02:43:45.327Z,61.05
2022-11-29T02:44:45.493Z,61.13
2022-11-29T02:45:45.365Z,61.02
2022-11-29T02:47:45.359Z,60.92
2022-11-29T02:48:45.354Z,60.92
2022-11-29T02:49:45.334Z,61.03
2022-11-29T02:50:45.369Z,60.87
2022-11-29T02:51:45.300Z,60.87
2022-11-29T02:52:45.390Z,60.75
2022-11-29T02:53:45.306Z,60.75
2022-11-29T02:54:45.658Z,60.82
2022-11-29T02:56:45.354Z,60.80
2022-11-29T02:58:45.339Z,60.82
2022-11-29T03:00:45.395Z,60.76
2022-11-29T03:01:45.360Z,60.76
2022-11-29T03:02:45.446Z,60.92
2022-11-29T03:03:45.367Z,61.06
2022-11-29T03:04:45.676Z,61.06
2022-11-29T03:06:45.342Z,60.99
2022-11-29T03:07:45.423Z,60.93
2022-11-29T03:09:45.483Z,61.15
2022-11-29T03:10:45.431Z,60.90
2022-11-29T03:11:45.398Z,60.90
2022-11-29T03:12:45.426Z,60.47
2022-11-29T03:13:45.400Z,60.47
2022-11-29T03:15:45.537Z,60.37
2022-11-29T03:16:45.412Z,60.37
2022-11-29T03:17:45.420Z,60.63
2022-11-29T03:18:45.406Z,60.64
2022-11-29T03:19:45.421Z,60.77
2022-11-29T03:20:45.444Z,60.77
2022-11-29T03:23:45.433Z,60.85
2022-11-29T03:24:45.516Z,60.93
2022-11-29T03:26:45.428Z,60.94
2022-11-29T03:27:45.441Z,60.90
2022-11-29T03:28:45.421Z,60.76
2022-11-29T03:29:45.435Z,60.68
2022-11-29T03:30:45.557Z,60.74
2022-11-29T03:31:45.400Z,60.74
2022-11-29T03:32:45.444Z,60.69
2022-11-29T03:33:45.476Z,60.64
2022-11-29T03:34:45.736Z,60.64
2022-11-29T03:35:45.474Z,60.84
2022-11-29T03:36:45.440Z,60.84
2022-11-29T03:37:45.467Z,60.54
2022-11-29T03:38:45.500Z,60.70
2022-11-29T03:39:45.450Z,60.70
2022-11-29T03:40:45.490Z,60.72
2022-11-29T03:42:45.479Z,60.70
2022-11-29T03:43:45.508Z,60.72
2022-11-29T03:44:45.667Z,60.72
2022-11-29T03:45:45.490Z,60.54
2022-11-29T03:47:45.442Z,60.75
2022-11-29T03:49:45.452Z,60.74
2022-11-29T03:50:45.505Z,60.56
2022-11-29T03:51:45.461Z,60.56
2022-11-29T03:52:45.493Z,60.51
2022-11-29T03:53:45.501Z,60.63
2022-11-29T03:54:45.821Z,60.73
2022-11-29T03:56:45.495Z,60.80
2022-11-29T03:57:45.518Z,60.72
2022-11-29T03:58:45.497Z,60.67
2022-11-29T03:59:45.482Z,60.67
2022-11-29T04:01:45.512Z,60.82
2022-11-29T04:02:45.546Z,60.79
2022-11-29T04:03:45.548Z,60.94
2022-11-29T04:04:45.748Z,60.94
2022-11-29T04:05:45.538Z,60.80
2022-11-29T04:06:45.505Z,60.77
2022-11-29T04:07:45.530Z,60.77
2022-11-29T04:08:45.538Z,60.93
2022-11-29T04:09:45.547Z,60.93
2022-11-29T04:11:45.505Z,60.99
2022-11-29T04:12:45.564Z,60.90
2022-11-29T04:14:45.853Z,60.90
2022-11-29T04:16:45.545Z,61.03
2022-11-29T04:17:45.531Z,61.03
2022-11-29T04:18:45.575Z,61.13
2022-11-29T04:19:45.573Z,61.13
2022-11-29T04:20:48.168Z,61.10
2022-11-29T04:21:45.613Z,61.20
2022-11-29T04:22:45.567Z,61.20
2022-11-29T04:23:45.625Z,61.37
2022-11-29T04:24:45.911Z,61.37
2022-11-29T04:26:45.628Z,61.39
2022-11-29T04:27:45.575Z,61.39
2022-11-29T04:28:45.573Z,61.21
2022-11-29T04:29:45.585Z,61.03
2022-11-29T04:30:45.666Z,61.03
2022-11-29T04:31:45.597Z,60.94
2022-11-29T04:32:45.577Z,60.84
2022-11-29T04:33:45.624Z,60.79
2022-11-29T04:34:45.973Z,60.79
2022-11-29T04:35:45.633Z,60.99
2022-11-29T04:36:45.599Z,60.99
2022-11-29T04:37:45.604Z,60.99
2022-11-29T04:39:45.607Z,60.96
2022-11-29T04:41:45.572Z,61.02
2022-11-29T04:42:45.589Z,61.03
2022-11-29T04:43:45.663Z,61.37
2022-11-29T04:44:45.749Z,61.37
2022-11-29T04:46:45.726Z,61.46
2022-11-29T04:47:45.613Z,61.45
2022-11-29T04:49:45.660Z,61.58
2022-11-29T04:50:45.633Z,61.58
2022-11-29T04:51:45.646Z,61.66
2022-11-29T04:52:45.633Z,61.66
2022-11-29T04:54:46.077Z,61.46
2022-11-29T04:55:45.680Z,61.56
2022-11-29T04:56:45.692Z,61.56
2022-11-29T04:58:45.649Z,61.60
2022-11-29T04:59:45.634Z,61.67
2022-11-29T05:00:45.690Z,61.73
2022-11-29T05:02:45.650Z,61.74
2022-11-29T05:03:46.921Z,61.82
2022-11-29T05:08:45.684Z,61.96
2022-11-29T05:10:45.646Z,61.79
2022-11-29T05:11:45.678Z,62.07
2022-11-29T05:12:45.706Z,62.07
2022-11-29T05:13:45.657Z,62.30
2022-11-29T05:14:46.007Z,62.12
2022-11-29T05:15:45.747Z,62.13
2022-11-29T05:16:45.736Z,62.00
2022-11-29T05:17:45.717Z,62.00
2022-11-29T05:18:46.998Z,61.90
2022-11-29T05:19:45.733Z,61.74
2022-11-29T05:21:45.761Z,61.76
2022-11-29T05:22:45.732Z,61.76
2022-11-29T05:23:45.706Z,61.79
2022-11-29T05:24:46.146Z,61.96
2022-11-29T05:25:45.720Z,61.96
2022-11-29T05:26:45.731Z,61.87
2022-11-29T05:27:45.727Z,61.98
2022-11-29T05:28:45.720Z,62.02
2022-11-29T05:30:45.707Z,61.95
2022-11-29T05:31:45.737Z,61.98
2022-11-29T05:32:45.770Z,62.06
2022-11-29T05:33:45.721Z,62.09
2022-11-29T05:34:45.761Z,62.18
2022-11-29T05:35:45.757Z,62.41
2022-11-29T05:36:45.748Z,62.41
2022-11-29T05:37:45.809Z,62.31
2022-11-29T05:38:45.760Z,62.24
2022-11-29T05:40:45.769Z,62.29
2022-11-29T05:41:45.728Z,62.26
2022-11-29T05:42:45.798Z,62.39
2022-11-29T05:43:45.757Z,62.39
2022-11-29T05:44:46.092Z,62.42
2022-11-29T05:45:45.807Z,62.42
2022-11-29T05:47:45.770Z,62.20
2022-11-29T05:48:45.788Z,62.20
2022-11-29T05:49:45.832Z,62.29
2022-11-29T05:50:45.787Z,62.29
2022-11-29T05:51:45.772Z,62.20
2022-11-29T05:52:45.817Z,62.28
2022-11-29T05:53:45.782Z,62.28
2022-11-29T05:55:45.767Z,62.62
2022-11-29T05:56:45.804Z,62.41
2022-11-29T05:57:45.857Z,62.48
2022-11-29T05:58:45.769Z,62.48
2022-11-29T05:59:45.809Z,62.41
2022-11-29T06:00:45.815Z,62.43
2022-11-29T06:01:45.836Z,62.58
2022-11-29T06:02:45.843Z,62.63
2022-11-29T06:03:45.803Z,62.63
2022-11-29T06:04:46.085Z,62.45
2022-11-29T06:05:45.869Z,62.52
2022-11-29T06:06:45.787Z,62.52
2022-11-29T06:07:45.935Z,62.10
2022-11-29T06:08:45.827Z,62.10
2022-11-29T06:09:45.798Z,61.98
2022-11-29T06:10:45.859Z,61.84
2022-11-29T06:11:45.796Z,61.84
2022-11-29T06:12:45.881Z,61.56
2022-11-29T06:13:45.843Z,61.56
2022-11-29T06:14:46.274Z,61.54
2022-11-29T06:16:45.839Z,61.52
2022-11-29T06:17:45.854Z,61.43
2022-11-29T06:18:45.825Z,61.31
2022-11-29T06:19:45.822Z,61.26
2022-11-29T06:20:45.893Z,61.12
2022-11-29T06:21:45.857Z,61.24
2022-11-29T06:22:45.883Z,61.24
2022-11-29T06:23:45.864Z,61.44
2022-11-29T06:24:46.361Z,61.43
2022-11-29T06:25:45.865Z,61.29
2022-11-29T06:26:45.874Z,61.37
2022-11-29T06:27:45.862Z,61.37
2022-11-29T06:28:45.930Z,61.57
2022-11-29T06:29:45.886Z,61.58
2022-11-29T06:31:45.924Z,61.58
2022-11-29T06:32:45.881Z,61.49
2022-11-29T06:33:45.946Z,61.31
2022-11-29T06:34:46.124Z,61.42
2022-11-29T06:35:45.872Z,61.42
2022-11-29T06:36:45.944Z,61.45
2022-11-29T06:37:45.904Z,61.45
2022-11-29T06:39:45.888Z,61.57
2022-11-29T06:40:45.871Z,61.58
2022-11-29T06:42:45.892Z,61.54
2022-11-29T06:43:45.955Z,61.50
2022-11-29T06:44:46.165Z,61.50
2022-11-29T06:45:45.931Z,61.44
2022-11-29T06:47:45.940Z,61.56
2022-11-29T06:48:45.916Z,61.53
2022-11-29T06:49:45.970Z,61.68
2022-11-29T06:50:45.900Z,61.95
2022-11-29T06:51:45.962Z,61.96
2022-11-29T06:52:45.890Z,61.96
2022-11-29T06:53:45.939Z,61.99
2022-11-29T06:54:46.208Z,61.94
2022-11-29T06:55:45.925Z,61.94
2022-11-29T06:56:45.976Z,61.62
2022-11-29T06:57:45.947Z,61.47
2022-11-29T07:01:46.061Z,61.16
2022-11-29T07:02:45.960Z,61.18
2022-11-29T07:04:46.611Z,61.28
2022-11-29T07:05:45.971Z,61.28
2022-11-29T07:06:45.965Z,61.33
2022-11-29T07:07:46.046Z,61.33
2022-11-29T07:08:45.959Z,61.17
2022-11-29T07:09:46.015Z,61.20
2022-11-29T07:10:45.951Z,61.24
2022-11-29T07:11:45.994Z,61.32
2022-11-29T07:12:45.994Z,61.32
2022-11-29T07:13:45.995Z,61.51
2022-11-29T07:15:45.974Z,61.61
2022-11-29T07:16:45.954Z,61.47
2022-11-29T07:17:46.035Z,61.66
2022-11-29T07:18:46.011Z,61.64
2022-11-29T07:19:46.040Z,61.61
2022-11-29T07:20:46.035Z,61.66
2022-11-29T07:21:46.018Z,61.74
2022-11-29T07:22:46.059Z,61.79
2022-11-29T07:23:46.016Z,61.79
2022-11-29T07:24:46.287Z,61.45
2022-11-29T07:25:45.980Z,61.45
2022-11-29T07:26:46.031Z,61.61
2022-11-29T07:27:46.044Z,62.02
2022-11-29T07:28:46.030Z,62.02
2022-11-29T07:29:46.051Z,62.21
2022-11-29T07:31:46.074Z,62.04
2022-11-29T07:32:50.329Z,62.12
2022-11-29T07:33:46.059Z,62.05
2022-11-29T07:34:46.251Z,62.05
2022-11-29T07:35:46.044Z,61.95
2022-11-29T07:36:46.047Z,61.79
2022-11-29T07:37:46.111Z,61.88
2022-11-29T07:38:46.036Z,61.93
2022-11-29T07:39:46.022Z,61.93
2022-11-29T07:40:46.053Z,61.86
2022-11-29T07:42:46.101Z,61.47
2022-11-29T07:43:46.029Z,61.47
2022-11-29T07:45:46.071Z,61.39
2022-11-29T07:47:46.113Z,61.36
2022-11-29T07:48:46.108Z,61.45
2022-11-29T07:49:46.060Z,61.45
2022-11-29T07:50:46.074Z,61.43
2022-11-29T07:51:46.073Z,61.43
2022-11-29T07:52:46.107Z,61.58
2022-11-29T07:53:46.145Z,61.27
2022-11-29T07:54:46.348Z,61.25
2022-11-29T07:57:46.061Z,61.15
2022-11-29T08:01:46.180Z,61.28
2022-11-29T08:02:46.074Z,61.33
2022-11-29T08:03:46.118Z,61.18
2022-11-29T08:04:46.315Z,61.18
2022-11-29T08:05:46.146Z,61.17
2022-11-29T08:06:46.138Z,61.07
2022-11-29T08:07:46.207Z,61.06
2022-11-29T08:08:46.181Z,60.91
2022-11-29T08:10:46.116Z,60.78
2022-11-29T08:11:46.125Z,60.78
2022-11-29T08:12:46.168Z,60.92
2022-11-29T08:14:46.455Z,60.88
2022-11-29T08:15:46.173Z,60.94
2022-11-29T08:16:46.133Z,60.94
2022-11-29T08:17:46.156Z,60.86
2022-11-29T08:18:46.150Z,60.47
2022-11-29T08:19:46.113Z,60.47
2022-11-29T08:20:46.183Z,60.72
2022-11-29T08:21:46.131Z,60.81
2022-11-29T08:22:46.117Z,60.80
2022-11-29T08:24:46.562Z,60.74
2022-11-29T08:25:46.129Z,60.62
2022-11-29T08:27:46.153Z,60.45
2022-11-29T08:28:46.165Z,60.47
2022-11-29T08:30:46.207Z,60.40
2022-11-29T08:31:46.360Z,60.32
2022-11-29T08:32:51.140Z,60.32
2022-11-29T08:33:46.232Z,60.18
2022-11-29T08:37:46.286Z,60.27
2022-11-29T08:38:46.229Z,60.23
2022-11-29T08:40:15.173Z,60.03
2022-11-29T08:40:46.192Z,60.03
2022-11-29T08:41:46.200Z,60.03
2022-11-29T08:42:46.170Z,60.03
2022-11-29T08:43:46.210Z,60.08
2022-11-29T08:44:46.500Z,60.11
2022-11-29T08:45:46.252Z,60.02
2022-11-29T08:46:46.284Z,60.09
2022-11-29T08:47:46.237Z,60.16
2022-11-29T08:48:46.164Z,60.16
2022-11-29T08:49:46.208Z,59.93
2022-11-29T08:50:46.198Z,59.93
2022-11-29T08:51:46.214Z,59.66
2022-11-29T08:52:46.188Z,59.68
2022-11-29T08:54:46.430Z,59.24
2022-11-29T08:55:46.197Z,59.24
2022-11-29T08:57:46.189Z,59.36
2022-11-29T08:58:46.207Z,59.55
2022-11-29T08:59:46.288Z,59.53
2022-11-29T09:01:46.372Z,59.63
2022-11-29T09:02:46.255Z,59.63
2022-11-29T09:03:46.261Z,59.35
2022-11-29T09:05:46.224Z,59.68
2022-11-29T09:07:46.243Z,59.45
2022-11-29T09:08:46.217Z,59.53
2022-11-29T09:09:46.264Z,59.50
2022-11-29T09:10:46.314Z,59.42
2022-11-29T09:11:49.240Z,59.17
2022-11-29T09:12:46.235Z,59.17
2022-11-29T09:13:46.225Z,59.24
2022-11-29T09:14:46.479Z,59.40
2022-11-29T09:15:46.295Z,59.48
2022-11-29T09:16:46.357Z,59.60
2022-11-29T09:17:46.290Z,59.52
2022-11-29T09:18:51.374Z,59.62
2022-11-29T09:22:46.316Z,59.71
2022-11-29T09:23:46.311Z,59.75
2022-11-29T09:25:46.320Z,59.17
2022-11-29T09:26:46.327Z,59.39
2022-11-29T09:27:46.269Z,59.62
2022-11-29T09:28:46.277Z,59.74
2022-11-29T09:29:46.312Z,59.68
2022-11-29T09:30:46.270Z,59.67
2022-11-29T09:31:46.385Z,59.63
2022-11-29T09:32:46.313Z,59.22
2022-11-29T09:33:46.338Z,58.83
2022-11-29T09:34:46.526Z,58.72
2022-11-29T09:35:46.289Z,58.72
2022-11-29T09:36:46.355Z,58.85
2022-11-29T09:37:46.374Z,58.96
2022-11-29T09:38:46.298Z,58.96
2022-11-29T09:39:46.341Z,58.72
2022-11-29T09:40:46.343Z,58.72
2022-11-29T09:41:48.521Z,58.75
2022-11-29T09:42:46.393Z,58.72
2022-11-29T09:43:46.349Z,58.94
2022-11-29T09:44:46.630Z,59.25
2022-11-29T09:46:46.344Z,59.35
2022-11-29T09:47:46.406Z,59.48
2022-11-29T09:48:46.345Z,59.50
2022-11-29T09:49:46.388Z,59.51
2022-11-29T09:50:46.367Z,59.51
2022-11-29T09:51:46.368Z,59.27
2022-11-29T09:53:46.397Z,58.87
2022-11-29T09:54:46.666Z,58.88
2022-11-29T09:55:46.350Z,58.96
2022-11-29T09:56:46.344Z,58.97
2022-11-29T09:57:46.425Z,58.92
2022-11-29T09:58:46.349Z,58.93
2022-11-29T09:59:46.421Z,58.91
2022-11-29T10:00:46.568Z,58.86
2022-11-29T10:01:46.397Z,58.66
2022-11-29T10:02:46.434Z,58.36
2022-11-29T10:03:46.355Z,58.36
2022-11-29T10:04:46.576Z,58.35
2022-11-29T10:05:46.441Z,58.12
2022-11-29T10:07:46.552Z,57.97
2022-11-29T10:08:46.408Z,57.97
2022-11-29T10:09:46.387Z,58.16
2022-11-29T10:10:46.414Z,58.06
2022-11-29T10:11:46.538Z,58.06
2022-11-29T10:12:46.450Z,57.96
2022-11-29T10:13:46.387Z,57.96
2022-11-29T10:14:46.671Z,57.92
2022-11-29T10:15:46.428Z,57.92
2022-11-29T10:16:46.482Z,57.84
2022-11-29T10:17:46.474Z,57.90
2022-11-29T10:18:46.453Z,57.88
2022-11-29T10:19:46.452Z,58.06
2022-11-29T10:20:49.138Z,57.97
2022-11-29T10:21:46.431Z,57.97
2022-11-29T10:22:46.454Z,58.10
2022-11-29T10:23:46.424Z,58.10
2022-11-29T10:24:46.673Z,57.90
2022-11-29T10:25:46.478Z,57.75
2022-11-29T10:27:46.451Z,57.12
2022-11-29T10:28:46.516Z,56.75
2022-11-29T10:29:46.421Z,56.75
2022-11-29T10:30:46.482Z,56.72
2022-11-29T10:31:46.441Z,56.72
2022-11-29T10:32:46.466Z,56.57
2022-11-29T10:33:46.462Z,56.72
2022-11-29T10:34:46.823Z,56.68
2022-11-29T10:35:46.491Z,56.31
2022-11-29T10:36:46.456Z,56.31
2022-11-29T10:38:07.781Z,56.17
2022-11-29T10:39:46.467Z,56.30
2022-11-29T10:40:46.499Z,56.18
2022-11-29T10:41:46.465Z,56.18
2022-11-29T10:42:46.490Z,56.36
2022-11-29T10:43:46.499Z,55.48
2022-11-29T10:45:48.491Z,55.56
2022-11-29T10:46:46.524Z,55.56
2022-11-29T10:47:46.466Z,55.72
2022-11-29T10:48:46.514Z,55.91
2022-11-29T10:49:46.465Z,55.91
2022-11-29T10:50:46.490Z,55.74
2022-11-29T10:51:46.523Z,55.77
2022-11-29T10:52:46.525Z,55.56
2022-11-29T10:53:46.554Z,55.44
2022-11-29T10:54:46.677Z,55.44
2022-11-29T10:55:46.525Z,55.53
2022-11-29T10:56:46.489Z,55.68
2022-11-29T10:57:46.537Z,55.88
2022-11-29T10:58:46.583Z,55.88
2022-11-29T10:59:46.544Z,55.91
2022-11-29T11:00:46.539Z,55.71
2022-11-29T11:01:46.587Z,55.89
2022-11-29T11:02:46.542Z,55.77
2022-11-29T11:03:50.181Z,55.65
2022-11-29T11:04:46.772Z,55.65
2022-11-29T11:05:46.579Z,55.76
2022-11-29T11:08:46.529Z,55.32
2022-11-29T11:09:46.577Z,55.25
2022-11-29T11:11:46.610Z,55.46
2022-11-29T11:13:46.534Z,55.49
2022-11-29T11:14:46.862Z,55.12
2022-11-29T11:16:46.655Z,55.23
2022-11-29T11:18:46.553Z,55.36
2022-11-29T11:19:46.586Z,55.33
2022-11-29T11:21:46.715Z,55.05
2022-11-29T11:22:46.612Z,55.11
2022-11-29T11:23:46.613Z,55.23
2022-11-29T11:24:46.951Z,54.80
2022-11-29T11:26:46.610Z,55.19
2022-11-29T11:28:46.625Z,55.15
2022-11-29T11:29:46.638Z,55.44
2022-11-29T11:30:46.696Z,55.54
2022-11-29T11:32:46.586Z,55.42
2022-11-29T11:33:46.680Z,55.42
2022-11-29T11:34:47.002Z,56.46
2022-11-29T11:35:46.630Z,56.46
2022-11-29T11:37:46.643Z,55.84
2022-11-29T11:39:46.753Z,55.90
2022-11-29T11:40:46.603Z,55.90
2022-11-29T11:41:46.607Z,56.20
2022-11-29T11:42:46.641Z,56.19
2022-11-29T11:43:46.657Z,56.11
2022-11-29T11:44:47.752Z,56.16
2022-11-29T11:46:46.816Z,56.17
2022-11-29T11:47:46.684Z,56.17
2022-11-29T11:49:46.673Z,56.12
2022-11-29T11:50:46.620Z,56.12
2022-11-29T11:53:46.656Z,56.08
2022-11-29T11:57:46.746Z,55.44
2022-11-29T11:58:46.723Z,55.45
2022-11-29T11:59:46.741Z,55.36
2022-11-29T12:01:03.481Z,55.36
2022-11-29T12:02:46.812Z,55.54
2022-11-29T12:03:46.711Z,55.66
2022-11-29T12:04:46.983Z,55.66
2022-11-29T12:05:46.709Z,55.73
2022-11-29T12:06:46.666Z,55.74
2022-11-29T12:08:07.350Z,55.69
2022-11-29T12:08:46.779Z,55.69
2022-11-29T12:09:46.743Z,55.68
2022-11-29T12:10:46.764Z,55.49
2022-11-29T12:11:46.688Z,55.49
2022-11-29T12:13:46.735Z,55.98
2022-11-29T12:14:47.067Z,56.10
2022-11-29T12:15:46.745Z,56.10
2022-11-29T12:16:46.746Z,55.92
2022-11-29T12:17:46.738Z,55.61
2022-11-29T12:18:46.678Z,55.61
2022-11-29T12:19:46.741Z,55.91
2022-11-29T12:20:46.710Z,55.91
2022-11-29T12:21:46.741Z,54.33
2022-11-29T12:22:48.450Z,54.33
2022-11-29T12:23:46.700Z,54.55
2022-11-29T12:24:47.248Z,54.76
2022-11-29T12:25:46.791Z,54.76
2022-11-29T12:28:46.786Z,54.50
2022-11-29T12:29:46.796Z,54.59
2022-11-29T12:30:46.801Z,54.51
2022-11-29T12:32:46.732Z,54.31
2022-11-29T12:33:46.798Z,54.40
2022-11-29T12:35:46.770Z,54.04
2022-11-29T12:36:46.779Z,54.40
2022-11-29T12:37:46.788Z,54.32
2022-11-29T12:38:46.790Z,54.43
2022-11-29T12:39:46.800Z,54.54
2022-11-29T12:40:46.823Z,54.56
2022-11-29T12:41:52.430Z,54.56
2022-11-29T12:42:46.827Z,54.05
2022-11-29T12:43:46.767Z,53.85
2022-11-29T12:44:47.078Z,53.82
2022-11-29T12:47:51.643Z,53.42
2022-11-29T12:48:46.796Z,53.42
2022-11-29T12:49:46.802Z,53.51
2022-11-29T12:50:46.810Z,53.03
2022-11-29T12:52:46.835Z,52.74
2022-11-29T12:54:48.377Z,53.24
2022-11-29T12:55:46.896Z,53.10
2022-11-29T12:56:46.800Z,53.10
2022-11-29T12:57:47.042Z,53.08
2022-11-29T12:58:46.809Z,53.08
2022-11-29T12:59:46.832Z,52.96
2022-11-29T13:00:46.886Z,52.88
2022-11-29T13:01:46.883Z,52.97
2022-11-29T13:02:47.016Z,52.99
2022-11-29T13:03:46.811Z,52.99
2022-11-29T13:04:47.083Z,52.91
2022-11-29T13:05:46.907Z,52.66
2022-11-29T13:06:46.863Z,53.00
2022-11-29T13:07:46.878Z,53.00
2022-11-29T13:08:46.867Z,52.75
2022-11-29T13:09:47.165Z,52.80
2022-11-29T13:10:46.883Z,52.62
2022-11-29T13:11:46.820Z,52.62
2022-11-29T13:12:46.851Z,52.11
2022-11-29T13:13:46.860Z,52.74
2022-11-29T13:15:46.866Z,52.78
2022-11-29T13:17:46.876Z,52.82
2022-11-29T13:19:46.898Z,52.70
2022-11-29T13:20:46.888Z,53.06
2022-11-29T13:21:46.887Z,53.13
2022-11-29T13:22:46.910Z,52.91
2022-11-29T13:24:07.771Z,52.93
2022-11-29T13:24:47.054Z,52.47
2022-11-29T13:25:46.870Z,52.96
2022-11-29T13:26:46.908Z,53.16
2022-11-29T13:27:46.901Z,53.28
2022-11-29T13:29:46.972Z,52.94
2022-11-29T13:30:46.913Z,52.69
2022-11-29T13:31:47.086Z,52.01
2022-11-29T13:32:46.934Z,52.01
2022-11-29T13:33:46.960Z,52.20
2022-11-29T13:34:47.181Z,52.20
2022-11-29T13:36:46.985Z,52.41
2022-11-29T13:37:51.993Z,51.97
2022-11-29T13:38:46.945Z,51.54
2022-11-29T13:39:46.955Z,52.58
2022-11-29T13:40:46.929Z,52.58
2022-11-29T13:41:46.927Z,53.08
2022-11-29T13:42:46.954Z,53.00
2022-11-29T13:43:46.942Z,53.36
2022-11-29T13:44:47.269Z,53.36
2022-11-29T13:45:46.898Z,53.25
2022-11-29T13:46:47.023Z,53.06
2022-11-29T13:47:46.945Z,53.06
2022-11-29T13:48:46.965Z,52.67
2022-11-29T13:49:46.984Z,52.95
2022-11-29T13:50:46.922Z,52.95
2022-11-29T13:51:46.994Z,52.57
2022-11-29T13:52:46.971Z,52.75
2022-11-29T13:55:47.004Z,52.93
2022-11-29T13:56:47.007Z,53.24
2022-11-29T13:58:14.492Z,53.25
2022-11-29T13:58:46.974Z,53.63
2022-11-29T13:59:47.705Z,53.58
2022-11-29T14:01:47.083Z,54.29
2022-11-29T14:02:47.009Z,54.29
2022-11-29T14:03:46.957Z,54.22
2022-11-29T14:04:47.242Z,54.58
2022-11-29T14:05:46.949Z,54.58
2022-11-29T14:06:48.264Z,55.08
2022-11-29T14:07:47.078Z,55.08
2022-11-29T14:09:16.798Z,55.40
2022-11-29T14:09:47.045Z,56.23
2022-11-29T14:10:46.994Z,56.23
2022-11-29T14:12:47.040Z,56.17
2022-11-29T14:13:46.997Z,56.37
2022-11-29T14:15:47.040Z,55.82
2022-11-29T14:16:47.036Z,56.32
2022-11-29T14:17:47.032Z,56.18
2022-11-29T14:19:47.006Z,56.51
2022-11-29T14:20:47.036Z,56.48
2022-11-29T14:21:46.997Z,56.59
2022-11-29T14:23:47.041Z,56.91
2022-11-29T14:24:47.308Z,56.76
2022-11-29T14:25:52.071Z,56.92
2022-11-29T14:26:47.042Z,57.13
2022-11-29T14:28:47.066Z,57.33
2022-11-29T14:29:47.046Z,57.33
2022-11-29T14:30:47.052Z,57.33
2022-11-29T14:31:47.108Z,57.14
2022-11-29T14:32:47.068Z,57.20
2022-11-29T14:33:47.018Z,57.32
2022-11-29T14:34:47.453Z,57.40
2022-11-29T14:35:47.098Z,57.55
2022-11-29T14:37:47.077Z,57.71
2022-11-29T14:38:47.061Z,57.84
2022-11-29T14:39:47.044Z,58.00
2022-11-29T14:41:47.086Z,58.43
2022-11-29T14:43:47.108Z,58.32
2022-11-29T14:44:47.296Z,58.39
2022-11-29T14:45:47.088Z,58.44
2022-11-29T14:46:47.141Z,58.49
2022-11-29T14:47:47.061Z,58.86
2022-11-29T14:48:47.177Z,59.02
2022-11-29T14:49:47.106Z,59.02
2022-11-29T14:50:47.078Z,59.22
2022-11-29T14:51:47.127Z,59.36
2022-11-29T14:53:47.108Z,59.37
2022-11-29T14:54:53.637Z,59.46
2022-11-29T14:55:47.115Z,59.46
2022-11-29T14:56:47.125Z,59.69
2022-11-29T14:59:47.102Z,59.96
2022-11-29T15:00:47.145Z,59.88
2022-11-29T15:01:47.273Z,59.89
2022-11-29T15:02:47.236Z,60.46
2022-11-29T15:03:47.204Z,60.49
2022-11-29T15:07:47.218Z,60.44
2022-11-29T15:08:47.189Z,60.47
2022-11-29T15:09:47.175Z,60.24
2022-11-29T15:10:47.115Z,60.44
2022-11-29T15:11:47.186Z,60.05
2022-11-29T15:12:47.174Z,60.05
2022-11-29T15:13:47.194Z,60.30
2022-11-29T15:14:47.418Z,60.30
2022-11-29T15:15:47.197Z,60.51
2022-11-29T15:16:47.256Z,60.74
2022-11-29T15:18:47.202Z,60.79
2022-11-29T15:19:47.168Z,60.66
2022-11-29T15:20:47.150Z,61.15
2022-11-29T15:21:47.218Z,61.23
2022-11-29T15:22:47.195Z,61.23
2022-11-29T15:23:47.175Z,61.93
2022-11-29T15:24:47.411Z,62.57
2022-11-29T15:25:47.201Z,62.17
2022-11-29T15:26:47.185Z,61.96
2022-11-29T15:27:47.170Z,62.33
2022-11-29T15:28:47.227Z,62.30
2022-11-29T15:29:47.194Z,62.32
2022-11-29T15:30:47.227Z,62.05
2022-11-29T15:31:47.274Z,62.60
2022-11-29T15:32:47.209Z,63.36
2022-11-29T15:33:47.253Z,62.07
2022-11-29T15:35:47.181Z,62.48
2022-11-29T15:36:47.263Z,62.84
2022-11-29T15:37:47.193Z,62.84
2022-11-29T15:38:47.210Z,62.58
2022-11-29T15:39:47.176Z,62.58
2022-11-29T15:40:47.195Z,62.70
2022-11-29T15:41:47.223Z,62.69
2022-11-29T15:42:47.265Z,62.39
2022-11-29T15:44:47.630Z,62.15
2022-11-29T15:45:47.257Z,62.22
2022-11-29T15:46:47.281Z,62.33
2022-11-29T15:47:47.240Z,62.33
2022-11-29T15:48:47.261Z,62.37
2022-11-29T15:49:47.205Z,62.06
2022-11-29T15:51:47.221Z,62.16
2022-11-29T15:52:47.250Z,62.44
2022-11-29T15:54:47.724Z,62.84
2022-11-29T15:55:47.218Z,62.84
2022-11-29T15:56:47.270Z,62.85
2022-11-29T15:57:47.224Z,62.85
2022-11-29T15:58:47.276Z,62.90